sensor_id;sensor_type;location;lat;lon;timestamp;pressure;altitude;pressure_sealevel;temperature;humidity
53635;BME280;39542;-34.932;138.594;2023-05-16T00:00:19;101901.31;;;16.94;59.49
53635;BME280;39542;-34.932;138.594;2023-05-16T00:00:53;101902.29;;;16.96;59.47
53635;BME280;39542;-34.932;138.594;2023-05-16T00:01:27;101901.74;;;16.94;59.55
53635;BME280;39542;-34.932;138.594;2023-05-16T00:02:01;101902.17;;;16.96;59.41
53635;BME280;39542;-34.932;138.594;2023-05-16T00:02:36;101902.80;;;16.98;59.45
53635;BME280;39542;-34.932;138.594;2023-05-16T00:03:10;101903.06;;;16.95;59.56
53635;BME280;39542;-34.932;138.594;2023-05-16T00:03:44;101902.28;;;16.95;59.49
53635;BME280;39542;-34.932;138.594;2023-05-16T00:04:18;101902.95;;;16.97;59.43
53635;BME280;39542;-34.932;138.594;2023-05-16T00:04:53;101905.69;;;16.94;59.60
53635;BME280;39542;-34.932;138.594;2023-05-16T00:05:27;101905.23;;;16.97;59.47
53635;BME280;39542;-34.932;138.594;2023-05-16T00:06:01;101904.16;;;16.99;59.48
53635;BME280;39542;-34.932;138.594;2023-05-16T00:06:35;101906.82;;;16.98;59.48
53635;BME280;39542;-34.932;138.594;2023-05-16T00:07:10;101908.25;;;16.99;59.42
53635;BME280;39542;-34.932;138.594;2023-05-16T00:07:45;101908.66;;;16.99;59.46
53635;BME280;39542;-34.932;138.594;2023-05-16T00:08:19;101908.68;;;16.98;59.45
53635;BME280;39542;-34.932;138.594;2023-05-16T00:08:54;101911.34;;;16.99;59.58
53635;BME280;39542;-34.932;138.594;2023-05-16T00:09:28;101909.50;;;16.99;59.58
53635;BME280;39542;-34.932;138.594;2023-05-16T00:10:02;101910.14;;;16.99;59.48
53635;BME280;39542;-34.932;138.594;2023-05-16T00:10:36;101910.91;;;17.02;59.48
53635;BME280;39542;-34.932;138.594;2023-05-16T00:11:11;101911.34;;;17.00;59.55
53635;BME280;39542;-34.932;138.594;2023-05-16T00:11:45;101909.36;;;16.96;59.65
53635;BME280;39542;-34.932;138.594;2023-05-16T00:12:19;101908.15;;;16.99;59.62
53635;BME280;39542;-34.932;138.594;2023-05-16T00:12:53;101908.73;;;16.98;59.55
53635;BME280;39542;-34.932;138.594;2023-05-16T00:13:28;101908.29;;;17.00;59.62
53635;BME280;39542;-34.932;138.594;2023-05-16T00:14:02;101906.56;;;17.01;59.49
53635;BME280;39542;-34.932;138.594;2023-05-16T00:14:37;101907.33;;;17.03;59.60
53635;BME280;39542;-34.932;138.594;2023-05-16T00:15:12;101905.71;;;17.01;59.62
53635;BME280;39542;-34.932;138.594;2023-05-16T00:15:46;101906.03;;;17.03;59.64
53635;BME280;39542;-34.932;138.594;2023-05-16T00:16:20;101905.24;;;16.97;59.72
53635;BME280;39542;-34.932;138.594;2023-05-16T00:16:54;101905.89;;;17.01;59.68
53635;BME280;39542;-34.932;138.594;2023-05-16T00:17:29;101908.00;;;17.00;59.68
53635;BME280;39542;-34.932;138.594;2023-05-16T00:18:04;101907.53;;;17.02;59.60
53635;BME280;39542;-34.932;138.594;2023-05-16T00:18:38;101905.88;;;17.02;59.64
53635;BME280;39542;-34.932;138.594;2023-05-16T00:19:12;101905.30;;;17.03;59.65
53635;BME280;39542;-34.932;138.594;2023-05-16T00:19:47;101907.85;;;17.02;59.68
53635;BME280;39542;-34.932;138.594;2023-05-16T00:20:21;101908.67;;;17.04;59.62
53635;BME280;39542;-34.932;138.594;2023-05-16T00:20:56;101908.79;;;17.05;59.73
53635;BME280;39542;-34.932;138.594;2023-05-16T00:21:30;101907.66;;;17.02;59.80
53635;BME280;39542;-34.932;138.594;2023-05-16T00:22:04;101908.38;;;17.04;59.68
53635;BME280;39542;-34.932;138.594;2023-05-16T00:22:39;101909.93;;;17.03;59.79
53635;BME280;39542;-34.932;138.594;2023-05-16T00:23:14;101909.55;;;17.04;59.77
53635;BME280;39542;-34.932;138.594;2023-05-16T00:23:48;101909.49;;;17.05;59.57
53635;BME280;39542;-34.932;138.594;2023-05-16T00:24:23;101908.52;;;17.05;59.82
53635;BME280;39542;-34.932;138.594;2023-05-16T00:24:57;101908.16;;;17.04;59.79
53635;BME280;39542;-34.932;138.594;2023-05-16T00:25:31;101908.83;;;17.06;59.74
53635;BME280;39542;-34.932;138.594;2023-05-16T00:26:06;101909.95;;;17.04;59.86
53635;BME280;39542;-34.932;138.594;2023-05-16T00:26:40;101909.42;;;17.05;59.85
53635;BME280;39542;-34.932;138.594;2023-05-16T00:27:14;101911.39;;;17.07;59.84
53635;BME280;39542;-34.932;138.594;2023-05-16T00:27:48;101910.21;;;17.07;59.80
53635;BME280;39542;-34.932;138.594;2023-05-16T00:28:23;101909.95;;;17.07;59.86
53635;BME280;39542;-34.932;138.594;2023-05-16T00:28:57;101909.43;;;17.09;59.70
53635;BME280;39542;-34.932;138.594;2023-05-16T00:29:32;101910.73;;;17.11;59.72
53635;BME280;39542;-34.932;138.594;2023-05-16T00:30:09;101911.16;;;17.10;59.83
53635;BME280;39542;-34.932;138.594;2023-05-16T00:30:43;101909.49;;;17.12;59.73
53635;BME280;39542;-34.932;138.594;2023-05-16T00:31:18;101908.98;;;17.12;59.61
53635;BME280;39542;-34.932;138.594;2023-05-16T00:31:52;101909.67;;;17.12;59.77
53635;BME280;39542;-34.932;138.594;2023-05-16T00:32:26;101910.04;;;17.13;59.78
53635;BME280;39542;-34.932;138.594;2023-05-16T00:33:01;101908.07;;;17.14;59.76
53635;BME280;39542;-34.932;138.594;2023-05-16T00:33:35;101908.92;;;17.13;59.73
53635;BME280;39542;-34.932;138.594;2023-05-16T00:34:10;101908.32;;;17.14;59.80
53635;BME280;39542;-34.932;138.594;2023-05-16T00:34:44;101911.53;;;17.16;59.76
53635;BME280;39542;-34.932;138.594;2023-05-16T00:35:18;101909.49;;;17.17;59.76
53635;BME280;39542;-34.932;138.594;2023-05-16T00:35:52;101908.40;;;17.16;59.75
53635;BME280;39542;-34.932;138.594;2023-05-16T00:36:26;101909.93;;;17.17;59.74
53635;BME280;39542;-34.932;138.594;2023-05-16T00:37:01;101908.08;;;17.15;59.83
53635;BME280;39542;-34.932;138.594;2023-05-16T00:37:36;101907.84;;;17.15;59.82
53635;BME280;39542;-34.932;138.594;2023-05-16T00:38:10;101906.16;;;17.16;59.82
53635;BME280;39542;-34.932;138.594;2023-05-16T00:38:44;101906.83;;;17.17;59.74
53635;BME280;39542;-34.932;138.594;2023-05-16T00:39:18;101906.55;;;17.18;59.76
53635;BME280;39542;-34.932;138.594;2023-05-16T00:39:53;101907.84;;;17.17;59.74
53635;BME280;39542;-34.932;138.594;2023-05-16T00:40:27;101908.20;;;17.20;59.76
53635;BME280;39542;-34.932;138.594;2023-05-16T00:41:01;101907.52;;;17.19;59.72
53635;BME280;39542;-34.932;138.594;2023-05-16T00:41:36;101909.43;;;17.20;59.76
53635;BME280;39542;-34.932;138.594;2023-05-16T00:42:10;101908.36;;;17.19;59.75
53635;BME280;39542;-34.932;138.594;2023-05-16T00:42:44;101908.29;;;17.18;59.78
53635;BME280;39542;-34.932;138.594;2023-05-16T00:43:18;101911.04;;;17.19;59.78
53635;BME280;39542;-34.932;138.594;2023-05-16T00:43:53;101909.85;;;17.20;59.80
53635;BME280;39542;-34.932;138.594;2023-05-16T00:44:27;101908.81;;;17.18;59.80
53635;BME280;39542;-34.932;138.594;2023-05-16T00:45:01;101908.86;;;17.19;59.77
53635;BME280;39542;-34.932;138.594;2023-05-16T00:45:36;101909.14;;;17.19;59.81
53635;BME280;39542;-34.932;138.594;2023-05-16T00:46:10;101908.64;;;17.20;59.85
53635;BME280;39542;-34.932;138.594;2023-05-16T00:46:44;101908.34;;;17.22;59.78
53635;BME280;39542;-34.932;138.594;2023-05-16T00:47:19;101908.59;;;17.20;59.80
53635;BME280;39542;-34.932;138.594;2023-05-16T00:47:53;101908.17;;;17.20;59.81
53635;BME280;39542;-34.932;138.594;2023-05-16T00:48:28;101906.89;;;17.19;59.77
53635;BME280;39542;-34.932;138.594;2023-05-16T00:49:02;101908.46;;;17.20;59.73
53635;BME280;39542;-34.932;138.594;2023-05-16T00:49:37;101908.19;;;17.21;59.78
53635;BME280;39542;-34.932;138.594;2023-05-16T00:50:12;101910.69;;;17.25;59.74
53635;BME280;39542;-34.932;138.594;2023-05-16T00:50:46;101911.28;;;17.24;59.76
53635;BME280;39542;-34.932;138.594;2023-05-16T00:51:21;101909.09;;;17.25;59.74
53635;BME280;39542;-34.932;138.594;2023-05-16T00:51:55;101908.44;;;17.24;59.81
53635;BME280;39542;-34.932;138.594;2023-05-16T00:52:30;101909.93;;;17.24;59.80
53635;BME280;39542;-34.932;138.594;2023-05-16T00:53:05;101912.29;;;17.26;59.76
53635;BME280;39542;-34.932;138.594;2023-05-16T00:53:39;101911.33;;;17.26;59.77
53635;BME280;39542;-34.932;138.594;2023-05-16T00:54:14;101909.36;;;17.27;59.76
53635;BME280;39542;-34.932;138.594;2023-05-16T00:54:49;101907.96;;;17.27;59.77
53635;BME280;39542;-34.932;138.594;2023-05-16T00:55:24;101910.67;;;17.27;59.81
53635;BME280;39542;-34.932;138.594;2023-05-16T00:55:58;101908.69;;;17.29;59.70
53635;BME280;39542;-34.932;138.594;2023-05-16T00:56:33;101910.01;;;17.28;59.79
53635;BME280;39542;-34.932;138.594;2023-05-16T00:57:08;101907.00;;;17.28;59.76
53635;BME280;39542;-34.932;138.594;2023-05-16T00:57:42;101908.10;;;17.28;59.77
53635;BME280;39542;-34.932;138.594;2023-05-16T00:58:18;101907.95;;;17.30;59.80
53635;BME280;39542;-34.932;138.594;2023-05-16T00:58:54;101906.01;;;17.28;59.78
53635;BME280;39542;-34.932;138.594;2023-05-16T00:59:29;101905.10;;;17.28;59.79
53635;BME280;39542;-34.932;138.594;2023-05-16T01:00:04;101902.66;;;17.28;59.79
53635;BME280;39542;-34.932;138.594;2023-05-16T01:00:39;101903.36;;;17.27;59.84
53635;BME280;39542;-34.932;138.594;2023-05-16T01:01:14;101902.23;;;17.28;59.79
53635;BME280;39542;-34.932;138.594;2023-05-16T01:01:48;101902.62;;;17.28;59.85
53635;BME280;39542;-34.932;138.594;2023-05-16T01:02:23;101903.15;;;17.28;59.86
53635;BME280;39542;-34.932;138.594;2023-05-16T01:02:58;101900.63;;;17.28;59.82
53635;BME280;39542;-34.932;138.594;2023-05-16T01:03:33;101900.84;;;17.27;59.95
53635;BME280;39542;-34.932;138.594;2023-05-16T01:04:08;101899.62;;;17.29;59.85
53635;BME280;39542;-34.932;138.594;2023-05-16T01:04:43;101901.33;;;17.29;59.83
53635;BME280;39542;-34.932;138.594;2023-05-16T01:05:19;101901.44;;;17.29;59.89
53635;BME280;39542;-34.932;138.594;2023-05-16T01:05:53;101901.56;;;17.31;59.81
53635;BME280;39542;-34.932;138.594;2023-05-16T01:06:28;101900.83;;;17.31;59.78
53635;BME280;39542;-34.932;138.594;2023-05-16T01:07:03;101900.30;;;17.30;59.82
53635;BME280;39542;-34.932;138.594;2023-05-16T01:07:37;101902.58;;;17.29;59.98
53635;BME280;39542;-34.932;138.594;2023-05-16T01:08:11;101903.31;;;17.29;59.81
53635;BME280;39542;-34.932;138.594;2023-05-16T01:08:46;101902.30;;;17.32;59.83
53635;BME280;39542;-34.932;138.594;2023-05-16T01:09:20;101900.06;;;17.32;59.80
53635;BME280;39542;-34.932;138.594;2023-05-16T01:09:54;101900.33;;;17.33;59.76
53635;BME280;39542;-34.932;138.594;2023-05-16T01:10:35;101900.44;;;17.31;59.76
53635;BME280;39542;-34.932;138.594;2023-05-16T01:11:20;101900.93;;;17.33;59.77
53635;BME280;39542;-34.932;138.594;2023-05-16T01:12:06;101900.42;;;17.35;59.76
53635;BME280;39542;-34.932;138.594;2023-05-16T01:13:02;101901.54;;;17.35;59.75
53635;BME280;39542;-34.932;138.594;2023-05-16T01:13:47;101901.46;;;17.37;59.66
53635;BME280;39542;-34.932;138.594;2023-05-16T01:14:33;101901.87;;;17.37;59.66
53635;BME280;39542;-34.932;138.594;2023-05-16T01:15:14;101901.17;;;17.36;59.74
53635;BME280;39542;-34.932;138.594;2023-05-16T01:15:55;101902.15;;;17.35;59.74
53635;BME280;39542;-34.932;138.594;2023-05-16T01:16:38;101902.66;;;17.33;59.76
53635;BME280;39542;-34.932;138.594;2023-05-16T01:17:20;101900.38;;;17.33;59.81
53635;BME280;39542;-34.932;138.594;2023-05-16T01:18:02;101903.46;;;17.34;59.78
53635;BME280;39542;-34.932;138.594;2023-05-16T01:18:45;101903.60;;;17.33;59.83
53635;BME280;39542;-34.932;138.594;2023-05-16T01:19:40;101903.18;;;17.34;59.77
53635;BME280;39542;-34.932;138.594;2023-05-16T01:20:29;101904.10;;;17.36;59.71
53635;BME280;39542;-34.932;138.594;2023-05-16T01:21:09;101904.80;;;17.37;59.76
53635;BME280;39542;-34.932;138.594;2023-05-16T01:21:52;101905.70;;;17.38;59.74
53635;BME280;39542;-34.932;138.594;2023-05-16T01:22:44;101907.32;;;17.38;59.76
53635;BME280;39542;-34.932;138.594;2023-05-16T01:23:40;101905.16;;;17.37;59.75
53635;BME280;39542;-34.932;138.594;2023-05-16T01:24:26;101905.75;;;17.36;59.89
53635;BME280;39542;-34.932;138.594;2023-05-16T01:25:20;101907.50;;;17.38;59.80
53635;BME280;39542;-34.932;138.594;2023-05-16T01:26:08;101904.41;;;17.41;59.70
53635;BME280;39542;-34.932;138.594;2023-05-16T01:26:43;101905.21;;;17.40;59.77
53635;BME280;39542;-34.932;138.594;2023-05-16T01:27:19;101906.14;;;17.40;59.72
53635;BME280;39542;-34.932;138.594;2023-05-16T01:27:55;101907.23;;;17.40;59.81
53635;BME280;39542;-34.932;138.594;2023-05-16T01:28:31;101904.86;;;17.39;59.81
53635;BME280;39542;-34.932;138.594;2023-05-16T01:29:06;101905.16;;;17.36;59.88
53635;BME280;39542;-34.932;138.594;2023-05-16T01:29:40;101905.63;;;17.35;59.93
53635;BME280;39542;-34.932;138.594;2023-05-16T01:30:17;101905.38;;;17.37;59.93
53635;BME280;39542;-34.932;138.594;2023-05-16T01:30:52;101904.64;;;17.37;59.93
53635;BME280;39542;-34.932;138.594;2023-05-16T01:31:26;101905.94;;;17.38;59.89
53635;BME280;39542;-34.932;138.594;2023-05-16T01:32:01;101904.72;;;17.38;59.86
53635;BME280;39542;-34.932;138.594;2023-05-16T01:32:35;101904.69;;;17.39;59.88
53635;BME280;39542;-34.932;138.594;2023-05-16T01:33:09;101905.67;;;17.39;59.91
53635;BME280;39542;-34.932;138.594;2023-05-16T01:33:44;101901.62;;;17.37;59.97
53635;BME280;39542;-34.932;138.594;2023-05-16T01:34:18;101903.10;;;17.37;59.98
53635;BME280;39542;-34.932;138.594;2023-05-16T01:34:52;101901.54;;;17.35;60.07
53635;BME280;39542;-34.932;138.594;2023-05-16T01:35:27;101900.57;;;17.38;59.99
53635;BME280;39542;-34.932;138.594;2023-05-16T01:36:07;101902.36;;;17.39;60.01
53635;BME280;39542;-34.932;138.594;2023-05-16T01:36:49;101897.24;;;17.40;59.99
53635;BME280;39542;-34.932;138.594;2023-05-16T01:37:32;101898.35;;;17.37;60.02
53635;BME280;39542;-34.932;138.594;2023-05-16T01:38:24;101898.89;;;17.37;60.04
53635;BME280;39542;-34.932;138.594;2023-05-16T01:39:04;101899.67;;;17.36;60.06
53635;BME280;39542;-34.932;138.594;2023-05-16T01:39:44;101899.20;;;17.35;60.14
53635;BME280;39542;-34.932;138.594;2023-05-16T01:40:27;101898.39;;;17.37;60.12
53635;BME280;39542;-34.932;138.594;2023-05-16T01:41:07;101896.64;;;17.38;60.12
53635;BME280;39542;-34.932;138.594;2023-05-16T01:41:56;101894.98;;;17.37;60.18
53635;BME280;39542;-34.932;138.594;2023-05-16T01:42:36;101898.86;;;17.38;60.08
53635;BME280;39542;-34.932;138.594;2023-05-16T01:43:16;101898.16;;;17.39;60.10
53635;BME280;39542;-34.932;138.594;2023-05-16T01:43:55;101900.06;;;17.37;60.12
53635;BME280;39542;-34.932;138.594;2023-05-16T01:44:34;101898.14;;;17.36;60.13
53635;BME280;39542;-34.932;138.594;2023-05-16T01:45:14;101897.55;;;17.37;60.15
53635;BME280;39542;-34.932;138.594;2023-05-16T01:46:02;101897.84;;;17.38;60.12
53635;BME280;39542;-34.932;138.594;2023-05-16T01:46:39;101897.87;;;17.38;60.13
53635;BME280;39542;-34.932;138.594;2023-05-16T01:47:18;101897.21;;;17.39;60.09
53635;BME280;39542;-34.932;138.594;2023-05-16T01:48:03;101897.54;;;17.39;60.06
53635;BME280;39542;-34.932;138.594;2023-05-16T01:48:42;101897.30;;;17.39;60.05
53635;BME280;39542;-34.932;138.594;2023-05-16T01:49:23;101899.49;;;17.39;60.10
53635;BME280;39542;-34.932;138.594;2023-05-16T01:50:11;101898.80;;;17.38;60.10
53635;BME280;39542;-34.932;138.594;2023-05-16T01:50:49;101898.83;;;17.38;60.15
53635;BME280;39542;-34.932;138.594;2023-05-16T01:51:29;101896.68;;;17.40;60.08
53635;BME280;39542;-34.932;138.594;2023-05-16T01:52:10;101896.21;;;17.40;60.08
53635;BME280;39542;-34.932;138.594;2023-05-16T01:52:49;101893.41;;;17.39;60.09
53635;BME280;39542;-34.932;138.594;2023-05-16T01:53:32;101893.23;;;17.39;60.10
53635;BME280;39542;-34.932;138.594;2023-05-16T01:54:12;101894.10;;;17.40;60.02
53635;BME280;39542;-34.932;138.594;2023-05-16T01:54:48;101892.94;;;17.42;60.05
53635;BME280;39542;-34.932;138.594;2023-05-16T01:55:34;101895.36;;;17.42;60.06
53635;BME280;39542;-34.932;138.594;2023-05-16T01:56:14;101891.97;;;17.46;59.96
53635;BME280;39542;-34.932;138.594;2023-05-16T01:56:52;101891.36;;;17.46;60.01
53635;BME280;39542;-34.932;138.594;2023-05-16T01:57:28;101890.92;;;17.46;59.98
53635;BME280;39542;-34.932;138.594;2023-05-16T01:58:05;101891.59;;;17.48;59.95
53635;BME280;39542;-34.932;138.594;2023-05-16T01:58:41;101890.54;;;17.47;59.96
53635;BME280;39542;-34.932;138.594;2023-05-16T01:59:17;101890.69;;;17.47;59.98
53635;BME280;39542;-34.932;138.594;2023-05-16T01:59:52;101890.59;;;17.46;59.98
53635;BME280;39542;-34.932;138.594;2023-05-16T02:00:26;101892.09;;;17.48;59.95
53635;BME280;39542;-34.932;138.594;2023-05-16T02:01:03;101890.57;;;17.49;59.96
53635;BME280;39542;-34.932;138.594;2023-05-16T02:01:37;101888.24;;;17.51;59.97
53635;BME280;39542;-34.932;138.594;2023-05-16T02:02:12;101890.15;;;17.49;59.94
53635;BME280;39542;-34.932;138.594;2023-05-16T02:02:46;101889.47;;;17.52;59.97
53635;BME280;39542;-34.932;138.594;2023-05-16T02:03:20;101890.84;;;17.51;59.94
53635;BME280;39542;-34.932;138.594;2023-05-16T02:03:54;101889.73;;;17.49;60.00
53635;BME280;39542;-34.932;138.594;2023-05-16T02:04:29;101889.88;;;17.50;59.96
53635;BME280;39542;-34.932;138.594;2023-05-16T02:05:04;101890.07;;;17.50;59.97
53635;BME280;39542;-34.932;138.594;2023-05-16T02:05:38;101889.61;;;17.48;59.99
53635;BME280;39542;-34.932;138.594;2023-05-16T02:06:12;101887.88;;;17.50;60.03
53635;BME280;39542;-34.932;138.594;2023-05-16T02:06:47;101884.95;;;17.53;59.88
53635;BME280;39542;-34.932;138.594;2023-05-16T02:07:21;101884.56;;;17.50;59.94
53635;BME280;39542;-34.932;138.594;2023-05-16T02:07:56;101884.81;;;17.48;60.01
53635;BME280;39542;-34.932;138.594;2023-05-16T02:08:31;101883.45;;;17.48;60.02
53635;BME280;39542;-34.932;138.594;2023-05-16T02:09:06;101883.24;;;17.49;60.02
53635;BME280;39542;-34.932;138.594;2023-05-16T02:09:40;101881.63;;;17.49;60.00
53635;BME280;39542;-34.932;138.594;2023-05-16T02:10:15;101880.61;;;17.51;59.96
53635;BME280;39542;-34.932;138.594;2023-05-16T02:10:49;101881.46;;;17.49;60.02
53635;BME280;39542;-34.932;138.594;2023-05-16T02:11:23;101882.33;;;17.48;60.08
53635;BME280;39542;-34.932;138.594;2023-05-16T02:11:58;101881.07;;;17.49;60.02
53635;BME280;39542;-34.932;138.594;2023-05-16T02:12:32;101881.04;;;17.51;60.03
53635;BME280;39542;-34.932;138.594;2023-05-16T02:13:06;101881.88;;;17.48;60.12
53635;BME280;39542;-34.932;138.594;2023-05-16T02:13:41;101879.94;;;17.48;60.16
53635;BME280;39542;-34.932;138.594;2023-05-16T02:14:15;101881.55;;;17.48;60.18
53635;BME280;39542;-34.932;138.594;2023-05-16T02:14:50;101882.42;;;17.50;60.15
53635;BME280;39542;-34.932;138.594;2023-05-16T02:15:24;101885.24;;;17.49;60.16
53635;BME280;39542;-34.932;138.594;2023-05-16T02:15:59;101887.06;;;17.51;60.14
53635;BME280;39542;-34.932;138.594;2023-05-16T02:16:33;101886.96;;;17.51;60.11
53635;BME280;39542;-34.932;138.594;2023-05-16T02:17:07;101883.11;;;17.52;60.14
53635;BME280;39542;-34.932;138.594;2023-05-16T02:17:42;101880.08;;;17.52;60.10
53635;BME280;39542;-34.932;138.594;2023-05-16T02:18:16;101884.92;;;17.53;60.13
53635;BME280;39542;-34.932;138.594;2023-05-16T02:18:51;101886.10;;;17.50;60.26
53635;BME280;39542;-34.932;138.594;2023-05-16T02:19:25;101884.91;;;17.49;60.20
53635;BME280;39542;-34.932;138.594;2023-05-16T02:19:59;101882.88;;;17.50;60.14
53635;BME280;39542;-34.932;138.594;2023-05-16T02:20:34;101881.38;;;17.52;60.13
53635;BME280;39542;-34.932;138.594;2023-05-16T02:21:08;101881.06;;;17.53;60.19
53635;BME280;39542;-34.932;138.594;2023-05-16T02:21:42;101879.01;;;17.57;60.02
53635;BME280;39542;-34.932;138.594;2023-05-16T02:22:17;101879.54;;;17.56;60.12
53635;BME280;39542;-34.932;138.594;2023-05-16T02:22:51;101881.49;;;17.57;60.07
53635;BME280;39542;-34.932;138.594;2023-05-16T02:23:25;101878.89;;;17.55;60.01
53635;BME280;39542;-34.932;138.594;2023-05-16T02:23:59;101878.33;;;17.53;60.07
53635;BME280;39542;-34.932;138.594;2023-05-16T02:24:34;101875.98;;;17.55;60.16
53635;BME280;39542;-34.932;138.594;2023-05-16T02:25:09;101876.02;;;17.53;60.20
53635;BME280;39542;-34.932;138.594;2023-05-16T02:25:43;101878.70;;;17.54;60.15
53635;BME280;39542;-34.932;138.594;2023-05-16T02:26:17;101878.05;;;17.53;60.15
53635;BME280;39542;-34.932;138.594;2023-05-16T02:26:51;101878.42;;;17.53;60.16
53635;BME280;39542;-34.932;138.594;2023-05-16T02:27:26;101878.63;;;17.51;60.25
53635;BME280;39542;-34.932;138.594;2023-05-16T02:28:00;101877.34;;;17.52;60.24
53635;BME280;39542;-34.932;138.594;2023-05-16T02:28:34;101877.72;;;17.52;60.25
53635;BME280;39542;-34.932;138.594;2023-05-16T02:29:09;101876.21;;;17.53;60.18
53635;BME280;39542;-34.932;138.594;2023-05-16T02:29:44;101876.66;;;17.52;60.24
53635;BME280;39542;-34.932;138.594;2023-05-16T02:30:18;101873.79;;;17.52;60.23
53635;BME280;39542;-34.932;138.594;2023-05-16T02:30:57;101872.22;;;17.54;60.24
53635;BME280;39542;-34.932;138.594;2023-05-16T02:31:32;101872.34;;;17.53;60.27
53635;BME280;39542;-34.932;138.594;2023-05-16T02:32:07;101871.89;;;17.57;60.17
53635;BME280;39542;-34.932;138.594;2023-05-16T02:32:41;101872.61;;;17.57;60.23
53635;BME280;39542;-34.932;138.594;2023-05-16T02:33:15;101872.85;;;17.55;60.26
53635;BME280;39542;-34.932;138.594;2023-05-16T02:33:50;101870.37;;;17.52;60.36
53635;BME280;39542;-34.932;138.594;2023-05-16T02:34:24;101871.81;;;17.54;60.30
53635;BME280;39542;-34.932;138.594;2023-05-16T02:34:58;101871.76;;;17.55;60.28
53635;BME280;39542;-34.932;138.594;2023-05-16T02:35:32;101870.08;;;17.54;60.32
53635;BME280;39542;-34.932;138.594;2023-05-16T02:36:07;101870.71;;;17.54;60.28
53635;BME280;39542;-34.932;138.594;2023-05-16T02:36:41;101870.64;;;17.54;60.34
53635;BME280;39542;-34.932;138.594;2023-05-16T02:37:16;101872.22;;;17.52;60.34
53635;BME280;39542;-34.932;138.594;2023-05-16T02:37:50;101869.76;;;17.53;60.38
53635;BME280;39542;-34.932;138.594;2023-05-16T02:38:25;101870.25;;;17.54;60.38
53635;BME280;39542;-34.932;138.594;2023-05-16T02:38:59;101867.18;;;17.54;60.35
53635;BME280;39542;-34.932;138.594;2023-05-16T02:39:33;101868.90;;;17.53;60.37
53635;BME280;39542;-34.932;138.594;2023-05-16T02:40:09;101869.53;;;17.51;60.44
53635;BME280;39542;-34.932;138.594;2023-05-16T02:40:43;101867.94;;;17.54;60.34
53635;BME280;39542;-34.932;138.594;2023-05-16T02:41:18;101866.86;;;17.53;60.41
53635;BME280;39542;-34.932;138.594;2023-05-16T02:41:52;101865.45;;;17.52;60.42
53635;BME280;39542;-34.932;138.594;2023-05-16T02:42:27;101867.42;;;17.52;60.44
53635;BME280;39542;-34.932;138.594;2023-05-16T02:43:01;101866.33;;;17.55;60.41
53635;BME280;39542;-34.932;138.594;2023-05-16T02:43:36;101865.16;;;17.57;60.34
53635;BME280;39542;-34.932;138.594;2023-05-16T02:44:10;101862.19;;;17.58;60.34
53635;BME280;39542;-34.932;138.594;2023-05-16T02:44:44;101863.78;;;17.55;60.37
53635;BME280;39542;-34.932;138.594;2023-05-16T02:45:18;101862.48;;;17.53;60.42
53635;BME280;39542;-34.932;138.594;2023-05-16T02:45:52;101862.47;;;17.54;60.45
53635;BME280;39542;-34.932;138.594;2023-05-16T02:46:28;101863.28;;;17.55;60.43
53635;BME280;39542;-34.932;138.594;2023-05-16T02:47:02;101863.30;;;17.53;60.45
53635;BME280;39542;-34.932;138.594;2023-05-16T02:47:37;101862.85;;;17.57;60.44
53635;BME280;39542;-34.932;138.594;2023-05-16T02:48:11;101863.58;;;17.57;60.43
53635;BME280;39542;-34.932;138.594;2023-05-16T02:48:46;101860.87;;;17.53;60.51
53635;BME280;39542;-34.932;138.594;2023-05-16T02:49:20;101856.76;;;17.53;60.53
53635;BME280;39542;-34.932;138.594;2023-05-16T02:49:55;101858.11;;;17.53;60.53
53635;BME280;39542;-34.932;138.594;2023-05-16T02:50:29;101856.52;;;17.54;60.58
53635;BME280;39542;-34.932;138.594;2023-05-16T02:51:03;101859.57;;;17.53;60.60
53635;BME280;39542;-34.932;138.594;2023-05-16T02:51:38;101859.83;;;17.57;60.52
53635;BME280;39542;-34.932;138.594;2023-05-16T02:52:12;101859.72;;;17.52;60.68
53635;BME280;39542;-34.932;138.594;2023-05-16T02:52:47;101856.75;;;17.53;60.62
53635;BME280;39542;-34.932;138.594;2023-05-16T02:53:21;101859.21;;;17.56;60.59
53635;BME280;39542;-34.932;138.594;2023-05-16T02:53:56;101860.44;;;17.54;60.65
53635;BME280;39542;-34.932;138.594;2023-05-16T02:54:30;101857.85;;;17.53;60.64
53635;BME280;39542;-34.932;138.594;2023-05-16T02:55:06;101857.62;;;17.52;60.73
53635;BME280;39542;-34.932;138.594;2023-05-16T02:55:40;101858.87;;;17.53;60.78
53635;BME280;39542;-34.932;138.594;2023-05-16T02:56:15;101857.32;;;17.53;60.76
53635;BME280;39542;-34.932;138.594;2023-05-16T02:56:49;101858.02;;;17.55;60.64
53635;BME280;39542;-34.932;138.594;2023-05-16T02:57:23;101863.72;;;17.57;60.68
53635;BME280;39542;-34.932;138.594;2023-05-16T02:57:58;101857.48;;;17.60;60.70
53635;BME280;39542;-34.932;138.594;2023-05-16T02:58:32;101859.65;;;17.60;60.65
53635;BME280;39542;-34.932;138.594;2023-05-16T02:59:06;101858.58;;;17.58;60.65
53635;BME280;39542;-34.932;138.594;2023-05-16T02:59:41;101856.62;;;17.55;60.74
53635;BME280;39542;-34.932;138.594;2023-05-16T03:00:16;101857.71;;;17.56;60.74
53635;BME280;39542;-34.932;138.594;2023-05-16T03:00:50;101858.17;;;17.58;60.70
53635;BME280;39542;-34.932;138.594;2023-05-16T03:01:25;101854.86;;;17.59;60.68